sensor_id;sensor_type;location;lat;lon;timestamp;P1;durP1;ratioP1;P2;durP2;ratioP2
29384;SDS011;16367;48.736;9.218;2023-12-07T00:00:58;14.85;;;5.50;;
29384;SDS011;16367;48.736;9.218;2023-12-07T00:03:00;10.38;;;5.00;;
29384;SDS011;16367;48.736;9.218;2023-12-07T00:05:02;9.60;;;4.63;;
29384;SDS011;16367;48.736;9.218;2023-12-07T00:08:14;12.98;;;5.05;;
29384;SDS011;16367;48.736;9.218;2023-12-07T00:10:16;9.68;;;4.63;;
29384;SDS011;16367;48.736;9.218;2023-12-07T00:12:17;11.00;;;5.05;;
29384;SDS011;16367;48.736;9.218;2023-12-07T00:14:19;12.45;;;4.95;;
29384;SDS011;16367;48.736;9.218;2023-12-07T00:16:20;10.07;;;4.13;;
29384;SDS011;16367;48.736;9.218;2023-12-07T00:18:22;11.30;;;4.95;;
29384;SDS011;16367;48.736;9.218;2023-12-07T00:20:23;9.70;;;4.40;;
29384;SDS011;16367;48.736;9.218;2023-12-07T00:22:25;12.85;;;5.22;;
29384;SDS011;16367;48.736;9.218;2023-12-07T00:24:28;9.85;;;4.30;;
29384;SDS011;16367;48.736;9.218;2023-12-07T00:28:43;10.40;;;4.57;;
29384;SDS011;16367;48.736;9.218;2023-12-07T00:30:45;11.50;;;5.20;;
29384;SDS011;16367;48.736;9.218;2023-12-07T00:32:47;10.20;;;4.75;;
29384;SDS011;16367;48.736;9.218;2023-12-07T00:34:48;11.88;;;5.80;;
29384;SDS011;16367;48.736;9.218;2023-12-07T00:36:50;10.00;;;4.63;;
29384;SDS011;16367;48.736;9.218;2023-12-07T00:38:51;13.23;;;4.72;;
29384;SDS011;16367;48.736;9.218;2023-12-07T00:40:53;10.60;;;4.88;;
29384;SDS011;16367;48.736;9.218;2023-12-07T00:42:54;10.15;;;4.70;;
29384;SDS011;16367;48.736;9.218;2023-12-07T00:44:57;11.73;;;5.43;;
29384;SDS011;16367;48.736;9.218;2023-12-07T00:53:11;8.93;;;4.72;;
29384;SDS011;16367;48.736;9.218;2023-12-07T00:55:13;10.48;;;4.40;;
29384;SDS011;16367;48.736;9.218;2023-12-07T00:57:14;10.27;;;4.18;;
29384;SDS011;16367;48.736;9.218;2023-12-07T00:59:15;9.27;;;4.03;;
29384;SDS011;16367;48.736;9.218;2023-12-07T01:01:17;8.55;;;4.45;;
29384;SDS011;16367;48.736;9.218;2023-12-07T01:03:18;9.98;;;4.28;;
29384;SDS011;16367;48.736;9.218;2023-12-07T01:05:20;10.25;;;3.63;;
29384;SDS011;16367;48.736;9.218;2023-12-07T01:07:21;9.63;;;4.28;;
29384;SDS011;16367;48.736;9.218;2023-12-07T01:09:23;8.48;;;3.85;;
29384;SDS011;16367;48.736;9.218;2023-12-07T01:15:02;8.25;;;3.50;;
29384;SDS011;16367;48.736;9.218;2023-12-07T01:17:05;12.65;;;3.67;;
29384;SDS011;16367;48.736;9.218;2023-12-07T01:21:07;9.15;;;3.22;;
29384;SDS011;16367;48.736;9.218;2023-12-07T01:23:09;7.28;;;2.88;;
29384;SDS011;16367;48.736;9.218;2023-12-07T01:25:13;6.60;;;3.00;;
29384;SDS011;16367;48.736;9.218;2023-12-07T01:27:20;8.80;;;4.25;;
29384;SDS011;16367;48.736;9.218;2023-12-07T01:29:22;6.93;;;3.35;;
29384;SDS011;16367;48.736;9.218;2023-12-07T01:31:24;7.97;;;3.92;;
29384;SDS011;16367;48.736;9.218;2023-12-07T01:33:25;9.75;;;3.45;;
29384;SDS011;16367;48.736;9.218;2023-12-07T01:41:11;9.13;;;3.20;;
29384;SDS011;16367;48.736;9.218;2023-12-07T01:43:12;8.82;;;3.42;;
29384;SDS011;16367;48.736;9.218;2023-12-07T01:45:13;8.13;;;3.47;;
29384;SDS011;16367;48.736;9.218;2023-12-07T01:47:15;10.00;;;4.45;;
29384;SDS011;16367;48.736;9.218;2023-12-07T01:49:16;7.60;;;3.65;;
29384;SDS011;16367;48.736;9.218;2023-12-07T01:51:18;8.32;;;3.40;;
29384;SDS011;16367;48.736;9.218;2023-12-07T01:53:21;11.73;;;4.40;;
29384;SDS011;16367;48.736;9.218;2023-12-07T01:55:24;10.70;;;4.22;;
29384;SDS011;16367;48.736;9.218;2023-12-07T01:57:27;10.73;;;4.45;;
29384;SDS011;16367;48.736;9.218;2023-12-07T02:01:43;10.60;;;4.75;;
29384;SDS011;16367;48.736;9.218;2023-12-07T02:03:45;8.95;;;4.78;;
29384;SDS011;16367;48.736;9.218;2023-12-07T02:05:47;8.63;;;4.43;;
29384;SDS011;16367;48.736;9.218;2023-12-07T02:07:49;11.68;;;5.22;;
29384;SDS011;16367;48.736;9.218;2023-12-07T02:09:51;8.82;;;4.68;;
29384;SDS011;16367;48.736;9.218;2023-12-07T02:11:52;10.38;;;5.28;;
29384;SDS011;16367;48.736;9.218;2023-12-07T02:13:54;11.55;;;5.05;;
29384;SDS011;16367;48.736;9.218;2023-12-07T02:15:58;9.70;;;4.85;;
29384;SDS011;16367;48.736;9.218;2023-12-07T02:18:03;10.43;;;4.50;;
29384;SDS011;16367;48.736;9.218;2023-12-07T02:26:30;11.38;;;4.85;;
29384;SDS011;16367;48.736;9.218;2023-12-07T02:28:32;10.88;;;5.47;;
29384;SDS011;16367;48.736;9.218;2023-12-07T02:30:34;10.32;;;4.90;;
29384;SDS011;16367;48.736;9.218;2023-12-07T02:32:36;10.48;;;4.18;;
29384;SDS011;16367;48.736;9.218;2023-12-07T02:34:37;11.20;;;4.82;;
29384;SDS011;16367;48.736;9.218;2023-12-07T02:36:39;10.65;;;4.88;;
29384;SDS011;16367;48.736;9.218;2023-12-07T02:38:41;12.18;;;5.03;;
29384;SDS011;16367;48.736;9.218;2023-12-07T02:40:45;11.50;;;4.72;;
29384;SDS011;16367;48.736;9.218;2023-12-07T02:42:48;12.38;;;5.32;;
29384;SDS011;16367;48.736;9.218;2023-12-07T02:47:03;13.75;;;6.13;;
29384;SDS011;16367;48.736;9.218;2023-12-07T02:49:05;10.02;;;4.78;;
29384;SDS011;16367;48.736;9.218;2023-12-07T02:51:06;11.75;;;4.47;;
29384;SDS011;16367;48.736;9.218;2023-12-07T02:53:08;12.75;;;5.00;;
29384;SDS011;16367;48.736;9.218;2023-12-07T02:55:09;9.43;;;4.68;;
29384;SDS011;16367;48.736;9.218;2023-12-07T02:57:11;11.15;;;4.97;;
29384;SDS011;16367;48.736;9.218;2023-12-07T02:59:12;11.52;;;4.90;;
29384;SDS011;16367;48.736;9.218;2023-12-07T03:01:13;8.88;;;4.55;;
29384;SDS011;16367;48.736;9.218;2023-12-07T03:03:15;9.85;;;4.72;;
29384;SDS011;16367;48.736;9.218;2023-12-07T03:12:42;13.80;;;5.70;;
29384;SDS011;16367;48.736;9.218;2023-12-07T03:14:44;11.35;;;5.15;;
29384;SDS011;16367;48.736;9.218;2023-12-07T03:16:45;11.85;;;5.40;;
29384;SDS011;16367;48.736;9.218;2023-12-07T03:18:46;10.70;;;4.82;;
29384;SDS011;16367;48.736;9.218;2023-12-07T03:20:48;9.90;;;4.80;;
29384;SDS011;16367;48.736;9.218;2023-12-07T03:22:51;11.93;;;5.25;;
29384;SDS011;16367;48.736;9.218;2023-12-07T03:24:52;10.88;;;5.00;;
29384;SDS011;16367;48.736;9.218;2023-12-07T03:26:56;10.98;;;4.82;;
29384;SDS011;16367;48.736;9.218;2023-12-07T03:28:59;9.20;;;4.55;;
29384;SDS011;16367;48.736;9.218;2023-12-07T03:37:13;10.82;;;4.85;;
29384;SDS011;16367;48.736;9.218;2023-12-07T03:39:15;13.55;;;5.13;;
29384;SDS011;16367;48.736;9.218;2023-12-07T03:41:19;13.65;;;6.13;;
29384;SDS011;16367;48.736;9.218;2023-12-07T03:43:20;12.18;;;6.32;;
29384;SDS011;16367;48.736;9.218;2023-12-07T03:45:22;12.15;;;5.20;;
29384;SDS011;16367;48.736;9.218;2023-12-07T03:47:23;11.75;;;5.28;;
29384;SDS011;16367;48.736;9.218;2023-12-07T03:49:26;16.05;;;4.97;;
29384;SDS011;16367;48.736;9.218;2023-12-07T03:51:28;13.20;;;5.25;;
29384;SDS011;16367;48.736;9.218;2023-12-07T03:53:32;12.38;;;5.45;;
29384;SDS011;16367;48.736;9.218;2023-12-07T03:58:55;11.55;;;4.95;;
29384;SDS011;16367;48.736;9.218;2023-12-07T04:00:57;11.75;;;5.13;;
29384;SDS011;16367;48.736;9.218;2023-12-07T04:03:01;10.23;;;4.75;;
29384;SDS011;16367;48.736;9.218;2023-12-07T04:05:03;11.50;;;5.53;;
29384;SDS011;16367;48.736;9.218;2023-12-07T04:07:05;10.07;;;4.70;;
29384;SDS011;16367;48.736;9.218;2023-12-07T04:09:06;11.30;;;5.25;;
29384;SDS011;16367;48.736;9.218;2023-12-07T04:11:08;12.55;;;5.72;;
29384;SDS011;16367;48.736;9.218;2023-12-07T04:13:09;12.55;;;5.47;;
29384;SDS011;16367;48.736;9.218;2023-12-07T04:15:11;10.50;;;4.70;;
29384;SDS011;16367;48.736;9.218;2023-12-07T04:23:25;12.60;;;5.15;;
29384;SDS011;16367;48.736;9.218;2023-12-07T04:25:27;11.32;;;4.70;;
29384;SDS011;16367;48.736;9.218;2023-12-07T04:27:28;12.65;;;6.05;;
29384;SDS011;16367;48.736;9.218;2023-12-07T04:31:30;11.85;;;5.22;;
29384;SDS011;16367;48.736;9.218;2023-12-07T04:33:32;13.65;;;5.32;;
29384;SDS011;16367;48.736;9.218;2023-12-07T04:35:33;13.50;;;5.25;;
29384;SDS011;16367;48.736;9.218;2023-12-07T04:37:35;11.43;;;5.38;;
29384;SDS011;16367;48.736;9.218;2023-12-07T04:39:37;11.18;;;5.47;;
29384;SDS011;16367;48.736;9.218;2023-12-07T04:49:08;16.58;;;7.05;;
29384;SDS011;16367;48.736;9.218;2023-12-07T04:51:10;11.70;;;4.68;;
29384;SDS011;16367;48.736;9.218;2023-12-07T04:53:11;12.38;;;6.10;;
29384;SDS011;16367;48.736;9.218;2023-12-07T04:55:13;13.02;;;5.35;;
29384;SDS011;16367;48.736;9.218;2023-12-07T04:57:16;15.73;;;5.85;;
29384;SDS011;16367;48.736;9.218;2023-12-07T04:59:17;15.07;;;5.88;;
29384;SDS011;16367;48.736;9.218;2023-12-07T05:01:18;12.50;;;5.65;;
29384;SDS011;16367;48.736;9.218;2023-12-07T05:03:20;12.25;;;5.85;;
29384;SDS011;16367;48.736;9.218;2023-12-07T05:05:22;11.55;;;6.03;;
29384;SDS011;16367;48.736;9.218;2023-12-07T05:11:39;12.07;;;5.65;;
29384;SDS011;16367;48.736;9.218;2023-12-07T05:13:41;10.98;;;5.38;;
29384;SDS011;16367;48.736;9.218;2023-12-07T05:15:42;10.73;;;5.65;;
29384;SDS011;16367;48.736;9.218;2023-12-07T05:17:44;13.02;;;5.82;;
29384;SDS011;16367;48.736;9.218;2023-12-07T05:19:45;13.68;;;5.68;;
29384;SDS011;16367;48.736;9.218;2023-12-07T05:21:47;13.38;;;6.00;;
29384;SDS011;16367;48.736;9.218;2023-12-07T05:23:48;11.50;;;5.80;;
29384;SDS011;16367;48.736;9.218;2023-12-07T05:25:49;13.77;;;6.43;;
29384;SDS011;16367;48.736;9.218;2023-12-07T05:27:51;13.18;;;6.05;;
29384;SDS011;16367;48.736;9.218;2023-12-07T05:29:53;13.65;;;5.65;;
29384;SDS011;16367;48.736;9.218;2023-12-07T05:32:06;12.90;;;5.30;;
29384;SDS011;16367;48.736;9.218;2023-12-07T05:34:08;14.30;;;5.78;;
29384;SDS011;16367;48.736;9.218;2023-12-07T05:36:09;11.35;;;5.40;;
29384;SDS011;16367;48.736;9.218;2023-12-07T05:38:12;14.20;;;5.63;;
29384;SDS011;16367;48.736;9.218;2023-12-07T05:40:14;11.65;;;5.60;;
29384;SDS011;16367;48.736;9.218;2023-12-07T05:42:16;13.05;;;5.35;;
29384;SDS011;16367;48.736;9.218;2023-12-07T05:44:18;14.18;;;5.75;;
29384;SDS011;16367;48.736;9.218;2023-12-07T05:46:22;12.40;;;5.57;;
29384;SDS011;16367;48.736;9.218;2023-12-07T05:48:24;14.18;;;5.10;;
29384;SDS011;16367;48.736;9.218;2023-12-07T05:54:34;11.60;;;5.25;;
29384;SDS011;16367;48.736;9.218;2023-12-07T05:56:36;16.25;;;5.85;;
29384;SDS011;16367;48.736;9.218;2023-12-07T06:00:39;13.00;;;5.38;;
29384;SDS011;16367;48.736;9.218;2023-12-07T06:02:40;15.98;;;5.90;;
29384;SDS011;16367;48.736;9.218;2023-12-07T06:04:42;16.52;;;6.13;;
29384;SDS011;16367;48.736;9.218;2023-12-07T06:06:43;14.80;;;6.35;;
29384;SDS011;16367;48.736;9.218;2023-12-07T06:08:45;16.30;;;6.75;;
29384;SDS011;16367;48.736;9.218;2023-12-07T06:10:47;13.38;;;6.13;;
29384;SDS011;16367;48.736;9.218;2023-12-07T06:17:03;11.55;;;5.40;;
29384;SDS011;16367;48.736;9.218;2023-12-07T06:19:04;13.82;;;6.30;;
29384;SDS011;16367;48.736;9.218;2023-12-07T06:21:06;16.13;;;6.53;;
29384;SDS011;16367;48.736;9.218;2023-12-07T06:23:07;15.10;;;7.07;;
29384;SDS011;16367;48.736;9.218;2023-12-07T06:25:13;14.10;;;6.32;;
29384;SDS011;16367;48.736;9.218;2023-12-07T06:27:14;17.23;;;7.20;;
29384;SDS011;16367;48.736;9.218;2023-12-07T06:29:16;14.45;;;6.28;;
29384;SDS011;16367;48.736;9.218;2023-12-07T06:33:21;15.82;;;6.10;;
29384;SDS011;16367;48.736;9.218;2023-12-07T06:38:28;13.18;;;5.80;;
29384;SDS011;16367;48.736;9.218;2023-12-07T06:40:29;16.13;;;5.78;;
29384;SDS011;16367;48.736;9.218;2023-12-07T06:42:32;13.68;;;6.20;;
29384;SDS011;16367;48.736;9.218;2023-12-07T06:44:33;18.20;;;7.57;;
29384;SDS011;16367;48.736;9.218;2023-12-07T06:48:35;14.63;;;5.57;;
29384;SDS011;16367;48.736;9.218;2023-12-07T06:50:37;14.68;;;6.22;;
29384;SDS011;16367;48.736;9.218;2023-12-07T06:52:39;14.13;;;6.93;;
29384;SDS011;16367;48.736;9.218;2023-12-07T06:54:41;21.55;;;6.50;;
29384;SDS011;16367;48.736;9.218;2023-12-07T07:00:56;17.05;;;6.95;;
29384;SDS011;16367;48.736;9.218;2023-12-07T07:02:57;27.27;;;7.47;;
29384;SDS011;16367;48.736;9.218;2023-12-07T07:04:59;21.10;;;8.40;;
29384;SDS011;16367;48.736;9.218;2023-12-07T07:07:00;15.13;;;7.13;;
29384;SDS011;16367;48.736;9.218;2023-12-07T07:09:02;17.55;;;6.47;;
29384;SDS011;16367;48.736;9.218;2023-12-07T07:11:09;17.60;;;7.18;;
29384;SDS011;16367;48.736;9.218;2023-12-07T07:13:12;16.25;;;7.40;;
29384;SDS011;16367;48.736;9.218;2023-12-07T07:15:15;20.30;;;8.05;;
29384;SDS011;16367;48.736;9.218;2023-12-07T07:17:17;16.80;;;7.05;;
29384;SDS011;16367;48.736;9.218;2023-12-07T07:21:31;13.30;;;6.28;;
29384;SDS011;16367;48.736;9.218;2023-12-07T07:23:33;13.65;;;5.95;;
29384;SDS011;16367;48.736;9.218;2023-12-07T07:25:35;15.20;;;6.82;;
29384;SDS011;16367;48.736;9.218;2023-12-07T07:27:37;19.77;;;6.88;;
29384;SDS011;16367;48.736;9.218;2023-12-07T07:29:38;16.45;;;7.93;;
29384;SDS011;16367;48.736;9.218;2023-12-07T07:31:40;21.55;;;7.18;;
29384;SDS011;16367;48.736;9.218;2023-12-07T07:33:41;17.42;;;7.32;;
29384;SDS011;16367;48.736;9.218;2023-12-07T07:35:43;16.60;;;7.50;;
29384;SDS011;16367;48.736;9.218;2023-12-07T07:37:45;17.08;;;7.28;;
29384;SDS011;16367;48.736;9.218;2023-12-07T07:44:01;17.38;;;7.85;;
29384;SDS011;16367;48.736;9.218;2023-12-07T07:46:05;16.17;;;6.70;;
29384;SDS011;16367;48.736;9.218;2023-12-07T07:48:06;13.65;;;6.80;;
29384;SDS011;16367;48.736;9.218;2023-12-07T07:50:10;15.32;;;6.30;;
29384;SDS011;16367;48.736;9.218;2023-12-07T07:52:12;16.15;;;6.88;;
29384;SDS011;16367;48.736;9.218;2023-12-07T07:54:13;14.23;;;6.70;;
29384;SDS011;16367;48.736;9.218;2023-12-07T07:56:14;13.68;;;5.97;;
29384;SDS011;16367;48.736;9.218;2023-12-07T07:58:16;15.15;;;6.22;;
29384;SDS011;16367;48.736;9.218;2023-12-07T08:00:18;11.25;;;5.38;;
29384;SDS011;16367;48.736;9.218;2023-12-07T08:04:33;14.98;;;5.32;;
29384;SDS011;16367;48.736;9.218;2023-12-07T08:06:35;12.77;;;5.72;;
29384;SDS011;16367;48.736;9.218;2023-12-07T08:08:38;14.05;;;6.03;;
29384;SDS011;16367;48.736;9.218;2023-12-07T08:10:39;12.07;;;6.03;;
29384;SDS011;16367;48.736;9.218;2023-12-07T08:12:56;12.65;;;5.85;;
29384;SDS011;16367;48.736;9.218;2023-12-07T08:14:58;12.65;;;5.93;;
29384;SDS011;16367;48.736;9.218;2023-12-07T08:16:59;13.07;;;6.45;;
29384;SDS011;16367;48.736;9.218;2023-12-07T08:19:01;13.95;;;5.82;;
29384;SDS011;16367;48.736;9.218;2023-12-07T08:21:03;13.98;;;6.55;;
29384;SDS011;16367;48.736;9.218;2023-12-07T08:29:14;14.90;;;6.15;;
29384;SDS011;16367;48.736;9.218;2023-12-07T08:31:15;10.98;;;5.55;;
29384;SDS011;16367;48.736;9.218;2023-12-07T08:33:18;11.85;;;5.43;;
29384;SDS011;16367;48.736;9.218;2023-12-07T08:35:19;12.52;;;6.32;;
29384;SDS011;16367;48.736;9.218;2023-12-07T08:37:20;11.57;;;5.82;;
29384;SDS011;16367;48.736;9.218;2023-12-07T08:39:23;10.10;;;5.00;;
29384;SDS011;16367;48.736;9.218;2023-12-07T08:41:25;10.93;;;5.50;;
29384;SDS011;16367;48.736;9.218;2023-12-07T08:43:26;11.18;;;6.00;;
29384;SDS011;16367;48.736;9.218;2023-12-07T08:45:29;14.70;;;5.75;;
29384;SDS011;16367;48.736;9.218;2023-12-07T08:49:55;11.48;;;5.30;;
29384;SDS011;16367;48.736;9.218;2023-12-07T08:51:56;9.65;;;4.60;;
29384;SDS011;16367;48.736;9.218;2023-12-07T08:54:17;9.38;;;4.95;;
29384;SDS011;16367;48.736;9.218;2023-12-07T08:56:19;10.07;;;4.47;;
29384;SDS011;16367;48.736;9.218;2023-12-07T08:58:21;10.75;;;4.75;;
29384;SDS011;16367;48.736;9.218;2023-12-07T09:00:22;10.38;;;4.97;;
29384;SDS011;16367;48.736;9.218;2023-12-07T09:02:25;12.18;;;5.40;;
29384;SDS011;16367;48.736;9.218;2023-12-07T09:04:42;11.40;;;5.28;;
29384;SDS011;16367;48.736;9.218;2023-12-07T09:06:44;13.05;;;5.10;;
29384;SDS011;16367;48.736;9.218;2023-12-07T09:12:59;12.63;;;4.65;;
29384;SDS011;16367;48.736;9.218;2023-12-07T09:15:01;10.20;;;4.95;;
29384;SDS011;16367;48.736;9.218;2023-12-07T09:17:02;10.23;;;5.45;;
29384;SDS011;16367;48.736;9.218;2023-12-07T09:19:04;10.35;;;5.18;;
29384;SDS011;16367;48.736;9.218;2023-12-07T09:21:05;10.80;;;5.38;;
29384;SDS011;16367;48.736;9.218;2023-12-07T09:23:07;11.35;;;5.00;;
29384;SDS011;16367;48.736;9.218;2023-12-07T09:25:08;11.35;;;5.82;;
29384;SDS011;16367;48.736;9.218;2023-12-07T09:27:10;11.27;;;5.53;;
29384;SDS011;16367;48.736;9.218;2023-12-07T09:29:13;9.90;;;5.25;;
29384;SDS011;16367;48.736;9.218;2023-12-07T09:33:40;10.73;;;5.15;;
29384;SDS011;16367;48.736;9.218;2023-12-07T09:35:41;10.25;;;4.80;;
29384;SDS011;16367;48.736;9.218;2023-12-07T09:37:43;10.20;;;4.88;;
29384;SDS011;16367;48.736;9.218;2023-12-07T09:39:44;9.02;;;5.00;;
29384;SDS011;16367;48.736;9.218;2023-12-07T09:41:45;8.10;;;4.18;;
29384;SDS011;16367;48.736;9.218;2023-12-07T09:43:47;9.68;;;4.13;;
29384;SDS011;16367;48.736;9.218;2023-12-07T09:45:49;9.63;;;4.45;;
29384;SDS011;16367;48.736;9.218;2023-12-07T09:47:54;7.85;;;4.32;;
29384;SDS011;16367;48.736;9.218;2023-12-07T09:49:57;10.15;;;5.03;;
29384;SDS011;16367;48.736;9.218;2023-12-07T09:55:21;11.52;;;5.53;;
29384;SDS011;16367;48.736;9.218;2023-12-07T09:57:24;11.63;;;4.60;;
29384;SDS011;16367;48.736;9.218;2023-12-07T10:01:31;8.55;;;4.57;;
29384;SDS011;16367;48.736;9.218;2023-12-07T10:03:33;10.15;;;4.57;;
29384;SDS011;16367;48.736;9.218;2023-12-07T10:05:34;11.10;;;4.65;;
29384;SDS011;16367;48.736;9.218;2023-12-07T10:07:55;11.13;;;4.53;;
29384;SDS011;16367;48.736;9.218;2023-12-07T10:09:56;11.32;;;4.47;;
29384;SDS011;16367;48.736;9.218;2023-12-07T10:19:03;8.85;;;3.70;;
29384;SDS011;16367;48.736;9.218;2023-12-07T10:21:31;9.40;;;3.58;;
29384;SDS011;16367;48.736;9.218;2023-12-07T10:23:33;9.25;;;3.85;;
29384;SDS011;16367;48.736;9.218;2023-12-07T10:25:35;7.70;;;3.30;;
29384;SDS011;16367;48.736;9.218;2023-12-07T10:27:38;8.05;;;3.40;;
29384;SDS011;16367;48.736;9.218;2023-12-07T10:29:41;8.45;;;3.22;;
29384;SDS011;16367;48.736;9.218;2023-12-07T10:31:45;7.03;;;3.40;;
29384;SDS011;16367;48.736;9.218;2023-12-07T10:33:48;10.80;;;3.63;;
29384;SDS011;16367;48.736;9.218;2023-12-07T10:35:51;9.68;;;3.70;;
29384;SDS011;16367;48.736;9.218;2023-12-07T10:42:07;7.65;;;3.88;;
29384;SDS011;16367;48.736;9.218;2023-12-07T10:44:16;7.70;;;3.20;;
29384;SDS011;16367;48.736;9.218;2023-12-07T10:46:21;7.28;;;3.55;;
29384;SDS011;16367;48.736;9.218;2023-12-07T10:48:22;8.80;;;3.40;;
29384;SDS011;16367;48.736;9.218;2023-12-07T10:50:25;7.93;;;3.60;;
29384;SDS011;16367;48.736;9.218;2023-12-07T10:52:31;5.57;;;2.35;;
29384;SDS011;16367;48.736;9.218;2023-12-07T10:54:37;8.10;;;3.22;;
29384;SDS011;16367;48.736;9.218;2023-12-07T10:56:43;9.43;;;3.53;;
29384;SDS011;16367;48.736;9.218;2023-12-07T10:58:46;9.70;;;3.55;;
29384;SDS011;16367;48.736;9.218;2023-12-07T11:07:03;8.15;;;3.33;;
29384;SDS011;16367;48.736;9.218;2023-12-07T11:09:12;7.82;;;3.33;;
29384;SDS011;16367;48.736;9.218;2023-12-07T11:11:21;7.30;;;3.25;;
29384;SDS011;16367;48.736;9.218;2023-12-07T11:13:29;5.97;;;2.80;;
29384;SDS011;16367;48.736;9.218;2023-12-07T11:15:32;7.85;;;2.70;;
29384;SDS011;16367;48.736;9.218;2023-12-07T11:17:47;7.70;;;3.08;;
29384;SDS011;16367;48.736;9.218;2023-12-07T11:19:50;6.90;;;2.78;;
29384;SDS011;16367;48.736;9.218;2023-12-07T11:21:53;7.75;;;2.92;;
29384;SDS011;16367;48.736;9.218;2023-12-07T11:23:55;7.82;;;3.20;;
29384;SDS011;16367;48.736;9.218;2023-12-07T11:32:06;6.43;;;3.17;;
29384;SDS011;16367;48.736;9.218;2023-12-07T11:34:29;6.88;;;3.17;;
29384;SDS011;16367;48.736;9.218;2023-12-07T11:36:35;7.70;;;3.70;;
29384;SDS011;16367;48.736;9.218;2023-12-07T11:38:38;6.93;;;3.60;;
29384;SDS011;16367;48.736;9.218;2023-12-07T11:40:59;7.93;;;3.28;;
29384;SDS011;16367;48.736;9.218;2023-12-07T11:43:02;6.18;;;2.83;;
29384;SDS011;16367;48.736;9.218;2023-12-07T11:45:06;8.50;;;3.25;;
29384;SDS011;16367;48.736;9.218;2023-12-07T11:47:09;8.98;;;3.63;;
29384;SDS011;16367;48.736;9.218;2023-12-07T11:49:10;9.15;;;3.75;;
29384;SDS011;16367;48.736;9.218;2023-12-07T11:55:42;5.72;;;2.20;;
29384;SDS011;16367;48.736;9.218;2023-12-07T11:57:44;7.82;;;3.00;;
29384;SDS011;16367;48.736;9.218;2023-12-07T11:59:46;8.13;;;3.75;;
29384;SDS011;16367;48.736;9.218;2023-12-07T12:01:48;9.60;;;4.30;;
29384;SDS011;16367;48.736;9.218;2023-12-07T12:03:50;6.55;;;3.03;;
29384;SDS011;16367;48.736;9.218;2023-12-07T12:05:51;8.43;;;3.53;;
29384;SDS011;16367;48.736;9.218;2023-12-07T12:07:53;6.43;;;2.80;;
29384;SDS011;16367;48.736;9.218;2023-12-07T12:09:54;6.70;;;2.70;;
29384;SDS011;16367;48.736;9.218;2023-12-07T12:11:57;8.27;;;3.38;;
29384;SDS011;16367;48.736;9.218;2023-12-07T12:18:28;6.07;;;2.63;;
29384;SDS011;16367;48.736;9.218;2023-12-07T12:20:29;9.25;;;3.65;;
29384;SDS011;16367;48.736;9.218;2023-12-07T12:22:32;8.10;;;3.28;;
29384;SDS011;16367;48.736;9.218;2023-12-07T12:24:33;9.85;;;3.03;;
29384;SDS011;16367;48.736;9.218;2023-12-07T12:26:36;7.93;;;3.00;;
29384;SDS011;16367;48.736;9.218;2023-12-07T12:28:40;8.77;;;3.47;;
29384;SDS011;16367;48.736;9.218;2023-12-07T12:30:44;8.63;;;3.60;;
29384;SDS011;16367;48.736;9.218;2023-12-07T12:32:46;6.90;;;3.40;;
29384;SDS011;16367;48.736;9.218;2023-12-07T12:34:50;9.07;;;4.22;;
29384;SDS011;16367;48.736;9.218;2023-12-07T12:39:05;7.82;;;3.47;;
29384;SDS011;16367;48.736;9.218;2023-12-07T12:41:17;9.80;;;3.40;;
29384;SDS011;16367;48.736;9.218;2023-12-07T12:43:19;7.13;;;3.70;;
29384;SDS011;16367;48.736;9.218;2023-12-07T12:45:20;8.60;;;3.63;;
29384;SDS011;16367;48.736;9.218;2023-12-07T12:47:23;7.68;;;3.60;;
29384;SDS011;16367;48.736;9.218;2023-12-07T12:49:34;8.07;;;3.40;;
29384;SDS011;16367;48.736;9.218;2023-12-07T12:51:36;9.02;;;3.17;;
29384;SDS011;16367;48.736;9.218;2023-12-07T12:53:41;5.95;;;3.20;;
29384;SDS011;16367;48.736;9.218;2023-12-07T12:55:43;9.02;;;3.08;;
29384;SDS011;16367;48.736;9.218;2023-12-07T13:01:56;7.60;;;3.13;;
29384;SDS011;16367;48.736;9.218;2023-12-07T13:03:58;7.28;;;3.20;;
29384;SDS011;16367;48.736;9.218;2023-12-07T13:05:59;7.15;;;3.33;;
29384;SDS011;16367;48.736;9.218;2023-12-07T13:08:03;8.73;;;3.63;;
29384;SDS011;16367;48.736;9.218;2023-12-07T13:10:15;8.18;;;4.10;;
29384;SDS011;16367;48.736;9.218;2023-12-07T13:12:16;8.77;;;4.40;;
29384;SDS011;16367;48.736;9.218;2023-12-07T13:14:18;10.27;;;5.18;;
29384;SDS011;16367;48.736;9.218;2023-12-07T13:16:20;7.45;;;3.65;;
29384;SDS011;16367;48.736;9.218;2023-12-07T13:18:22;7.47;;;3.47;;
29384;SDS011;16367;48.736;9.218;2023-12-07T13:23:38;9.43;;;3.83;;
29384;SDS011;16367;48.736;9.218;2023-12-07T13:25:39;7.07;;;3.28;;
29384;SDS011;16367;48.736;9.218;2023-12-07T13:27:41;6.18;;;3.03;;
29384;SDS011;16367;48.736;9.218;2023-12-07T13:29:43;5.90;;;2.72;;
29384;SDS011;16367;48.736;9.218;2023-12-07T13:31:44;6.13;;;2.67;;
29384;SDS011;16367;48.736;9.218;2023-12-07T13:33:47;6.30;;;3.10;;
29384;SDS011;16367;48.736;9.218;2023-12-07T13:35:57;6.80;;;3.33;;
29384;SDS011;16367;48.736;9.218;2023-12-07T13:37:58;8.65;;;2.60;;
29384;SDS011;16367;48.736;9.218;2023-12-07T13:40:00;4.68;;;2.17;;
29384;SDS011;16367;48.736;9.218;2023-12-07T13:46:17;5.60;;;2.20;;
29384;SDS011;16367;48.736;9.218;2023-12-07T13:48:19;5.72;;;2.67;;
29384;SDS011;16367;48.736;9.218;2023-12-07T13:50:20;5.53;;;2.78;;
29384;SDS011;16367;48.736;9.218;2023-12-07T13:52:23;9.20;;;2.80;;
29384;SDS011;16367;48.736;9.218;2023-12-07T13:54:24;6.82;;;2.80;;
29384;SDS011;16367;48.736;9.218;2023-12-07T13:56:45;4.03;;;1.50;;
29384;SDS011;16367;48.736;9.218;2023-12-07T13:58:47;3.78;;;1.40;;
29384;SDS011;16367;48.736;9.218;2023-12-07T14:00:48;3.65;;;1.58;;
29384;SDS011;16367;48.736;9.218;2023-12-07T14:02:51;5.57;;;1.80;;
29384;SDS011;16367;48.736;9.218;2023-12-07T14:11:07;6.13;;;1.70;;
29384;SDS011;16367;48.736;9.218;2023-12-07T14:13:08;5.50;;;1.50;;
29384;SDS011;16367;48.736;9.218;2023-12-07T14:15:10;5.15;;;1.63;;
29384;SDS011;16367;48.736;9.218;2023-12-07T14:17:12;2.67;;;0.93;;
29384;SDS011;16367;48.736;9.218;2023-12-07T14:19:15;3.47;;;1.45;;
29384;SDS011;16367;48.736;9.218;2023-12-07T14:21:20;4.68;;;1.50;;
29384;SDS011;16367;48.736;9.218;2023-12-07T14:23:22;4.03;;;1.45;;
29384;SDS011;16367;48.736;9.218;2023-12-07T14:25:24;3.25;;;1.08;;
29384;SDS011;16367;48.736;9.218;2023-12-07T14:27:26;3.88;;;1.40;;
29384;SDS011;16367;48.736;9.218;2023-12-07T14:37:14;3.03;;;1.20;;
29384;SDS011;16367;48.736;9.218;2023-12-07T14:39:15;3.58;;;1.35;;
29384;SDS011;16367;48.736;9.218;2023-12-07T14:41:17;6.15;;;1.98;;
29384;SDS011;16367;48.736;9.218;2023-12-07T14:43:18;4.18;;;1.77;;
29384;SDS011;16367;48.736;9.218;2023-12-07T14:45:22;5.75;;;1.95;;
29384;SDS011;16367;48.736;9.218;2023-12-07T14:47:24;4.60;;;2.38;;
29384;SDS011;16367;48.736;9.218;2023-12-07T14:49:25;4.57;;;1.80;;
29384;SDS011;16367;48.736;9.218;2023-12-07T14:51:27;6.28;;;2.10;;
29384;SDS011;16367;48.736;9.218;2023-12-07T14:53:29;4.75;;;2.22;;
29384;SDS011;16367;48.736;9.218;2023-12-07T14:57:43;4.65;;;1.52;;
29384;SDS011;16367;48.736;9.218;2023-12-07T14:59:45;4.20;;;1.98;;
29384;SDS011;16367;48.736;9.218;2023-12-07T15:01:46;4.45;;;1.65;;
29384;SDS011;16367;48.736;9.218;2023-12-07T15:03:47;3.67;;;1.50;;
29384;SDS011;16367;48.736;9.218;2023-12-07T15:05:48;3.92;;;1.58;;
29384;SDS011;16367;48.736;9.218;2023-12-07T15:07:50;4.32;;;1.40;;
29384;SDS011;16367;48.736;9.218;2023-12-07T15:09:51;4.65;;;1.75;;
29384;SDS011;16367;48.736;9.218;2023-12-07T15:11:53;5.70;;;1.85;;
29384;SDS011;16367;48.736;9.218;2023-12-07T15:13:57;5.03;;;2.10;;
29384;SDS011;16367;48.736;9.218;2023-12-07T15:19:10;5.70;;;1.73;;